sensor_id;sensor_type;location;lat;lon;timestamp;P1;durP1;ratioP1;P2;durP2;ratioP2
27999;SDS011;15328;50.860;10.562;2023-02-17T00:01:41;41.50;;;23.85;;
27999;SDS011;15328;50.860;10.562;2023-02-17T00:06:41;43.40;;;24.50;;
27999;SDS011;15328;50.860;10.562;2023-02-17T00:11:41;43.83;;;24.20;;
27999;SDS011;15328;50.860;10.562;2023-02-17T00:16:42;39.33;;;23.27;;
27999;SDS011;15328;50.860;10.562;2023-02-17T00:21:43;41.55;;;25.58;;
27999;SDS011;15328;50.860;10.562;2023-02-17T00:26:43;47.25;;;26.95;;
27999;SDS011;15328;50.860;10.562;2023-02-17T00:31:44;43.53;;;25.80;;
27999;SDS011;15328;50.860;10.562;2023-02-17T00:36:45;46.97;;;25.58;;
27999;SDS011;15328;50.860;10.562;2023-02-17T00:41:45;50.00;;;27.38;;
27999;SDS011;15328;50.860;10.562;2023-02-17T00:46:45;45.45;;;26.23;;
27999;SDS011;15328;50.860;10.562;2023-02-17T00:51:46;42.03;;;24.95;;
27999;SDS011;15328;50.860;10.562;2023-02-17T00:56:46;45.08;;;26.15;;
27999;SDS011;15328;50.860;10.562;2023-02-17T01:01:47;46.58;;;25.40;;
27999;SDS011;15328;50.860;10.562;2023-02-17T01:06:47;43.00;;;24.88;;
27999;SDS011;15328;50.860;10.562;2023-02-17T01:11:47;43.60;;;23.53;;
27999;SDS011;15328;50.860;10.562;2023-02-17T01:16:48;43.83;;;25.47;;
27999;SDS011;15328;50.860;10.562;2023-02-17T01:21:48;40.13;;;23.40;;
27999;SDS011;15328;50.860;10.562;2023-02-17T01:26:49;38.03;;;22.85;;
27999;SDS011;15328;50.860;10.562;2023-02-17T01:31:49;37.33;;;22.53;;
27999;SDS011;15328;50.860;10.562;2023-02-17T01:36:50;35.65;;;21.15;;
27999;SDS011;15328;50.860;10.562;2023-02-17T01:41:50;35.87;;;21.00;;
27999;SDS011;15328;50.860;10.562;2023-02-17T01:46:51;36.00;;;21.13;;
27999;SDS011;15328;50.860;10.562;2023-02-17T01:52:10;35.92;;;22.10;;
27999;SDS011;15328;50.860;10.562;2023-02-17T01:57:18;31.25;;;19.30;;
27999;SDS011;15328;50.860;10.562;2023-02-17T02:02:22;28.48;;;17.00;;
27999;SDS011;15328;50.860;10.562;2023-02-17T02:07:25;21.88;;;14.25;;
27999;SDS011;15328;50.860;10.562;2023-02-17T02:12:30;19.85;;;12.65;;
27999;SDS011;15328;50.860;10.562;2023-02-17T02:38:42;16.73;;;10.98;;
27999;SDS011;15328;50.860;10.562;2023-02-17T02:43:51;16.92;;;10.73;;
27999;SDS011;15328;50.860;10.562;2023-02-17T02:48:52;16.85;;;10.90;;
27999;SDS011;15328;50.860;10.562;2023-02-17T03:09:57;14.60;;;9.55;;
27999;SDS011;15328;50.860;10.562;2023-02-17T03:15:00;11.32;;;8.07;;
27999;SDS011;15328;50.860;10.562;2023-02-17T03:20:07;12.68;;;8.05;;
27999;SDS011;15328;50.860;10.562;2023-02-17T03:25:08;12.38;;;7.53;;
27999;SDS011;15328;50.860;10.562;2023-02-17T03:30:08;13.37;;;9.27;;
27999;SDS011;15328;50.860;10.562;2023-02-17T03:35:09;13.95;;;8.77;;
27999;SDS011;15328;50.860;10.562;2023-02-17T03:40:10;15.18;;;10.13;;
27999;SDS011;15328;50.860;10.562;2023-02-17T03:45:10;13.85;;;9.52;;
27999;SDS011;15328;50.860;10.562;2023-02-17T03:50:10;11.25;;;7.80;;
27999;SDS011;15328;50.860;10.562;2023-02-17T03:55:11;12.15;;;8.85;;
27999;SDS011;15328;50.860;10.562;2023-02-17T04:00:11;11.55;;;8.00;;
27999;SDS011;15328;50.860;10.562;2023-02-17T04:05:12;12.32;;;7.45;;
27999;SDS011;15328;50.860;10.562;2023-02-17T04:10:12;13.27;;;8.88;;
27999;SDS011;15328;50.860;10.562;2023-02-17T04:15:13;11.50;;;7.30;;
27999;SDS011;15328;50.860;10.562;2023-02-17T04:20:13;9.57;;;6.68;;
27999;SDS011;15328;50.860;10.562;2023-02-17T04:25:13;9.13;;;6.63;;
27999;SDS011;15328;50.860;10.562;2023-02-17T04:30:14;10.45;;;6.90;;
27999;SDS011;15328;50.860;10.562;2023-02-17T04:35:14;8.60;;;6.22;;
27999;SDS011;15328;50.860;10.562;2023-02-17T04:40:15;9.38;;;6.25;;
27999;SDS011;15328;50.860;10.562;2023-02-17T04:45:16;11.30;;;6.57;;
27999;SDS011;15328;50.860;10.562;2023-02-17T04:50:16;9.23;;;6.00;;
27999;SDS011;15328;50.860;10.562;2023-02-17T04:55:18;10.18;;;6.20;;
27999;SDS011;15328;50.860;10.562;2023-02-17T05:00:18;8.52;;;5.55;;
27999;SDS011;15328;50.860;10.562;2023-02-17T05:05:19;11.07;;;7.50;;
27999;SDS011;15328;50.860;10.562;2023-02-17T05:10:20;9.68;;;7.00;;
27999;SDS011;15328;50.860;10.562;2023-02-17T05:15:21;11.10;;;7.32;;
27999;SDS011;15328;50.860;10.562;2023-02-17T05:20:21;9.40;;;6.30;;
27999;SDS011;15328;50.860;10.562;2023-02-17T05:25:22;10.18;;;6.90;;
27999;SDS011;15328;50.860;10.562;2023-02-17T05:30:22;9.60;;;6.78;;
27999;SDS011;15328;50.860;10.562;2023-02-17T05:35:26;11.40;;;7.35;;
27999;SDS011;15328;50.860;10.562;2023-02-17T05:40:27;8.73;;;6.50;;
27999;SDS011;15328;50.860;10.562;2023-02-17T05:45:27;9.23;;;5.75;;
27999;SDS011;15328;50.860;10.562;2023-02-17T05:50:28;8.40;;;6.00;;
27999;SDS011;15328;50.860;10.562;2023-02-17T05:55:28;9.90;;;5.63;;
27999;SDS011;15328;50.860;10.562;2023-02-17T06:00:28;7.60;;;5.20;;
27999;SDS011;15328;50.860;10.562;2023-02-17T06:05:29;8.38;;;5.70;;
27999;SDS011;15328;50.860;10.562;2023-02-17T06:10:29;8.65;;;5.50;;
27999;SDS011;15328;50.860;10.562;2023-02-17T06:15:29;8.27;;;5.87;;
27999;SDS011;15328;50.860;10.562;2023-02-17T06:20:30;8.82;;;5.93;;
27999;SDS011;15328;50.860;10.562;2023-02-17T06:25:30;8.60;;;6.40;;
27999;SDS011;15328;50.860;10.562;2023-02-17T06:30:30;7.20;;;5.50;;
27999;SDS011;15328;50.860;10.562;2023-02-17T06:35:31;8.68;;;6.38;;
27999;SDS011;15328;50.860;10.562;2023-02-17T06:40:31;8.88;;;6.03;;
27999;SDS011;15328;50.860;10.562;2023-02-17T06:45:32;9.10;;;6.50;;
27999;SDS011;15328;50.860;10.562;2023-02-17T06:50:32;7.15;;;5.22;;
27999;SDS011;15328;50.860;10.562;2023-02-17T06:55:33;7.15;;;5.38;;
27999;SDS011;15328;50.860;10.562;2023-02-17T07:00:34;6.78;;;5.10;;
27999;SDS011;15328;50.860;10.562;2023-02-17T07:05:35;7.43;;;5.68;;
27999;SDS011;15328;50.860;10.562;2023-02-17T07:10:36;8.93;;;6.70;;
27999;SDS011;15328;50.860;10.562;2023-02-17T07:15:36;9.43;;;5.75;;
27999;SDS011;15328;50.860;10.562;2023-02-17T07:20:37;7.47;;;5.75;;
27999;SDS011;15328;50.860;10.562;2023-02-17T07:25:37;8.23;;;6.10;;
27999;SDS011;15328;50.860;10.562;2023-02-17T07:30:41;7.50;;;5.30;;
27999;SDS011;15328;50.860;10.562;2023-02-17T07:35:42;7.63;;;5.85;;
27999;SDS011;15328;50.860;10.562;2023-02-17T07:40:44;8.60;;;6.13;;
27999;SDS011;15328;50.860;10.562;2023-02-17T07:45:44;8.35;;;5.90;;
27999;SDS011;15328;50.860;10.562;2023-02-17T07:50:44;7.95;;;6.43;;
27999;SDS011;15328;50.860;10.562;2023-02-17T07:55:45;7.97;;;6.27;;
27999;SDS011;15328;50.860;10.562;2023-02-17T08:00:45;7.72;;;5.80;;
27999;SDS011;15328;50.860;10.562;2023-02-17T08:05:45;9.35;;;6.15;;
27999;SDS011;15328;50.860;10.562;2023-02-17T08:10:46;8.60;;;6.43;;
27999;SDS011;15328;50.860;10.562;2023-02-17T08:21:05;8.97;;;6.60;;
27999;SDS011;15328;50.860;10.562;2023-02-17T08:26:05;7.63;;;6.15;;
27999;SDS011;15328;50.860;10.562;2023-02-17T08:31:05;11.13;;;7.33;;
27999;SDS011;15328;50.860;10.562;2023-02-17T08:36:24;11.23;;;7.38;;
27999;SDS011;15328;50.860;10.562;2023-02-17T08:41:28;8.43;;;6.57;;
27999;SDS011;15328;50.860;10.562;2023-02-17T08:46:33;9.15;;;6.38;;
27999;SDS011;15328;50.860;10.562;2023-02-17T08:51:35;9.95;;;5.78;;
27999;SDS011;15328;50.860;10.562;2023-02-17T08:56:36;7.78;;;5.80;;
27999;SDS011;15328;50.860;10.562;2023-02-17T09:01:38;8.88;;;6.07;;
27999;SDS011;15328;50.860;10.562;2023-02-17T09:06:41;7.35;;;5.38;;
27999;SDS011;15328;50.860;10.562;2023-02-17T09:11:45;9.85;;;6.45;;
27999;SDS011;15328;50.860;10.562;2023-02-17T09:16:45;7.07;;;5.40;;
27999;SDS011;15328;50.860;10.562;2023-02-17T09:21:46;7.97;;;5.57;;
27999;SDS011;15328;50.860;10.562;2023-02-17T09:26:47;7.72;;;5.28;;
27999;SDS011;15328;50.860;10.562;2023-02-17T09:31:47;8.00;;;5.20;;
27999;SDS011;15328;50.860;10.562;2023-02-17T09:36:48;8.15;;;5.13;;
27999;SDS011;15328;50.860;10.562;2023-02-17T09:41:49;6.70;;;4.90;;
27999;SDS011;15328;50.860;10.562;2023-02-17T09:47:13;7.82;;;4.93;;
27999;SDS011;15328;50.860;10.562;2023-02-17T09:52:21;7.90;;;4.72;;
27999;SDS011;15328;50.860;10.562;2023-02-17T09:57:31;7.47;;;5.28;;
27999;SDS011;15328;50.860;10.562;2023-02-17T10:02:48;7.07;;;5.35;;
27999;SDS011;15328;50.860;10.562;2023-02-17T10:07:59;7.20;;;5.50;;
27999;SDS011;15328;50.860;10.562;2023-02-17T10:13:04;8.23;;;5.20;;
27999;SDS011;15328;50.860;10.562;2023-02-17T10:18:13;7.25;;;5.68;;
27999;SDS011;15328;50.860;10.562;2023-02-17T10:23:19;8.15;;;5.50;;
27999;SDS011;15328;50.860;10.562;2023-02-17T10:39:48;6.60;;;4.68;;
27999;SDS011;15328;50.860;10.562;2023-02-17T10:44:50;8.13;;;5.10;;
27999;SDS011;15328;50.860;10.562;2023-02-17T10:49:53;7.57;;;4.88;;
27999;SDS011;15328;50.860;10.562;2023-02-17T10:54:59;6.20;;;4.55;;
27999;SDS011;15328;50.860;10.562;2023-02-17T11:00:05;6.70;;;4.90;;
27999;SDS011;15328;50.860;10.562;2023-02-17T11:05:18;5.78;;;4.60;;
27999;SDS011;15328;50.860;10.562;2023-02-17T11:10:34;5.63;;;3.80;;
27999;SDS011;15328;50.860;10.562;2023-02-17T11:15:42;5.28;;;4.10;;
27999;SDS011;15328;50.860;10.562;2023-02-17T11:20:44;4.95;;;3.80;;
27999;SDS011;15328;50.860;10.562;2023-02-17T11:25:53;5.10;;;3.90;;
27999;SDS011;15328;50.860;10.562;2023-02-17T11:30:56;5.50;;;3.90;;
27999;SDS011;15328;50.860;10.562;2023-02-17T11:35:59;9.32;;;5.40;;
27999;SDS011;15328;50.860;10.562;2023-02-17T11:41:01;4.63;;;3.53;;
27999;SDS011;15328;50.860;10.562;2023-02-17T11:52:24;4.60;;;3.50;;
27999;SDS011;15328;50.860;10.562;2023-02-17T11:57:40;4.65;;;3.53;;
27999;SDS011;15328;50.860;10.562;2023-02-17T12:18:44;5.18;;;3.55;;
27999;SDS011;15328;50.860;10.562;2023-02-17T12:29:38;4.13;;;3.13;;
27999;SDS011;15328;50.860;10.562;2023-02-17T12:34:52;5.18;;;3.67;;
27999;SDS011;15328;50.860;10.562;2023-02-17T12:39:58;5.47;;;3.40;;
27999;SDS011;15328;50.860;10.562;2023-02-17T12:45:15;4.35;;;3.47;;
27999;SDS011;15328;50.860;10.562;2023-02-17T12:50:18;4.30;;;3.25;;
27999;SDS011;15328;50.860;10.562;2023-02-17T12:55:24;5.93;;;3.80;;
27999;SDS011;15328;50.860;10.562;2023-02-17T13:00:33;6.70;;;3.58;;
27999;SDS011;15328;50.860;10.562;2023-02-17T13:05:46;4.10;;;2.92;;
27999;SDS011;15328;50.860;10.562;2023-02-17T13:10:59;4.57;;;3.30;;
27999;SDS011;15328;50.860;10.562;2023-02-17T13:31:23;4.72;;;3.25;;
27999;SDS011;15328;50.860;10.562;2023-02-17T13:41:31;4.78;;;3.47;;
27999;SDS011;15328;50.860;10.562;2023-02-17T13:46:42;3.75;;;2.80;;
27999;SDS011;15328;50.860;10.562;2023-02-17T13:51:43;3.90;;;2.78;;
27999;SDS011;15328;50.860;10.562;2023-02-17T13:56:48;4.53;;;2.60;;
27999;SDS011;15328;50.860;10.562;2023-02-17T14:01:50;3.83;;;2.80;;
27999;SDS011;15328;50.860;10.562;2023-02-17T14:06:55;4.13;;;2.80;;
27999;SDS011;15328;50.860;10.562;2023-02-17T14:11:58;4.18;;;2.60;;
27999;SDS011;15328;50.860;10.562;2023-02-17T14:17:12;3.78;;;2.50;;
27999;SDS011;15328;50.860;10.562;2023-02-17T14:22:27;3.95;;;2.58;;
27999;SDS011;15328;50.860;10.562;2023-02-17T14:27:43;3.00;;;2.40;;
27999;SDS011;15328;50.860;10.562;2023-02-17T14:32:46;3.22;;;2.40;;
27999;SDS011;15328;50.860;10.562;2023-02-17T14:37:46;2.80;;;2.20;;
27999;SDS011;15328;50.860;10.562;2023-02-17T14:42:47;3.33;;;2.15;;
27999;SDS011;15328;50.860;10.562;2023-02-17T14:47:48;3.08;;;2.03;;
27999;SDS011;15328;50.860;10.562;2023-02-17T14:52:48;2.72;;;2.10;;
27999;SDS011;15328;50.860;10.562;2023-02-17T14:57:51;3.15;;;2.35;;
27999;SDS011;15328;50.860;10.562;2023-02-17T15:02:52;3.03;;;2.30;;
27999;SDS011;15328;50.860;10.562;2023-02-17T15:07:52;3.83;;;1.90;;
27999;SDS011;15328;50.860;10.562;2023-02-17T15:12:53;2.60;;;2.10;;
27999;SDS011;15328;50.860;10.562;2023-02-17T15:17:54;4.82;;;2.08;;
27999;SDS011;15328;50.860;10.562;2023-02-17T15:22:54;2.47;;;1.85;;
27999;SDS011;15328;50.860;10.562;2023-02-17T15:27:56;2.72;;;2.00;;
27999;SDS011;15328;50.860;10.562;2023-02-17T15:32:57;2.23;;;1.70;;
27999;SDS011;15328;50.860;10.562;2023-02-17T15:37:57;2.57;;;1.90;;
27999;SDS011;15328;50.860;10.562;2023-02-17T15:42:58;1.80;;;1.60;;
27999;SDS011;15328;50.860;10.562;2023-02-17T15:48:06;2.13;;;1.70;;
27999;SDS011;15328;50.860;10.562;2023-02-17T15:53:12;2.15;;;1.70;;
27999;SDS011;15328;50.860;10.562;2023-02-17T15:58:14;4.10;;;1.73;;
27999;SDS011;15328;50.860;10.562;2023-02-17T16:03:17;1.88;;;1.45;;
27999;SDS011;15328;50.860;10.562;2023-02-17T16:08:17;2.25;;;1.63;;
27999;SDS011;15328;50.860;10.562;2023-02-17T16:13:18;2.72;;;1.67;;
27999;SDS011;15328;50.860;10.562;2023-02-17T16:18:19;2.60;;;1.83;;
27999;SDS011;15328;50.860;10.562;2023-02-17T16:23:21;1.90;;;1.50;;
27999;SDS011;15328;50.860;10.562;2023-02-17T16:28:21;2.07;;;1.20;;
27999;SDS011;15328;50.860;10.562;2023-02-17T16:33:22;2.92;;;1.30;;
27999;SDS011;15328;50.860;10.562;2023-02-17T16:38:22;2.33;;;1.30;;
27999;SDS011;15328;50.860;10.562;2023-02-17T16:43:23;3.28;;;1.35;;
27999;SDS011;15328;50.860;10.562;2023-02-17T16:48:27;2.40;;;1.52;;
27999;SDS011;15328;50.860;10.562;2023-02-17T16:53:29;2.35;;;1.52;;
27999;SDS011;15328;50.860;10.562;2023-02-17T16:58:29;1.90;;;1.20;;
27999;SDS011;15328;50.860;10.562;2023-02-17T17:03:30;1.30;;;1.20;;
27999;SDS011;15328;50.860;10.562;2023-02-17T17:08:30;3.13;;;1.90;;
27999;SDS011;15328;50.860;10.562;2023-02-17T17:13:30;3.13;;;1.83;;
27999;SDS011;15328;50.860;10.562;2023-02-17T17:18:31;2.17;;;1.60;;
27999;SDS011;15328;50.860;10.562;2023-02-17T17:23:31;2.47;;;1.50;;
27999;SDS011;15328;50.860;10.562;2023-02-17T17:28:31;1.77;;;1.50;;
27999;SDS011;15328;50.860;10.562;2023-02-17T17:33:32;1.70;;;1.60;;
27999;SDS011;15328;50.860;10.562;2023-02-17T17:38:32;1.70;;;1.17;;
27999;SDS011;15328;50.860;10.562;2023-02-17T17:43:32;1.83;;;1.07;;
27999;SDS011;15328;50.860;10.562;2023-02-17T17:48:33;1.43;;;1.30;;
27999;SDS011;15328;50.860;10.562;2023-02-17T17:53:33;13.98;;;8.52;;
27999;SDS011;15328;50.860;10.562;2023-02-17T17:58:33;6.17;;;4.27;;
27999;SDS011;15328;50.860;10.562;2023-02-17T18:03:38;1.92;;;1.20;;
27999;SDS011;15328;50.860;10.562;2023-02-17T18:08:39;0.80;;;0.68;;
27999;SDS011;15328;50.860;10.562;2023-02-17T18:13:45;1.40;;;0.90;;
27999;SDS011;15328;50.860;10.562;2023-02-17T18:18:47;2.78;;;1.20;;
27999;SDS011;15328;50.860;10.562;2023-02-17T18:23:48;1.00;;;0.90;;
27999;SDS011;15328;50.860;10.562;2023-02-17T18:28:49;1.42;;;1.00;;
27999;SDS011;15328;50.860;10.562;2023-02-17T18:33:50;1.33;;;0.90;;
27999;SDS011;15328;50.860;10.562;2023-02-17T18:38:51;1.95;;;1.10;;
27999;SDS011;15328;50.860;10.562;2023-02-17T18:43:52;1.55;;;1.10;;
27999;SDS011;15328;50.860;10.562;2023-02-17T18:48:53;2.03;;;1.63;;
27999;SDS011;15328;50.860;10.562;2023-02-17T18:53:56;5.05;;;1.83;;
27999;SDS011;15328;50.860;10.562;2023-02-17T18:58:57;2.03;;;1.83;;
27999;SDS011;15328;50.860;10.562;2023-02-17T19:03:58;2.15;;;1.50;;
27999;SDS011;15328;50.860;10.562;2023-02-17T19:08:59;2.60;;;1.63;;
27999;SDS011;15328;50.860;10.562;2023-02-17T19:14:00;3.70;;;2.17;;
27999;SDS011;15328;50.860;10.562;2023-02-17T19:19:01;3.88;;;1.92;;
27999;SDS011;15328;50.860;10.562;2023-02-17T19:24:02;2.92;;;1.95;;
27999;SDS011;15328;50.860;10.562;2023-02-17T19:29:02;2.72;;;2.20;;
27999;SDS011;15328;50.860;10.562;2023-02-17T19:34:03;2.20;;;1.80;;
27999;SDS011;15328;50.860;10.562;2023-02-17T19:39:03;2.60;;;2.30;;
27999;SDS011;15328;50.860;10.562;2023-02-17T19:44:04;2.72;;;2.15;;
27999;SDS011;15328;50.860;10.562;2023-02-17T19:49:04;50.37;;;28.77;;
27999;SDS011;15328;50.860;10.562;2023-02-17T19:54:05;6.90;;;4.80;;
27999;SDS011;15328;50.860;10.562;2023-02-17T19:59:05;3.30;;;2.60;;
27999;SDS011;15328;50.860;10.562;2023-02-17T20:04:06;3.97;;;2.92;;
27999;SDS011;15328;50.860;10.562;2023-02-17T20:09:13;3.88;;;2.80;;
27999;SDS011;15328;50.860;10.562;2023-02-17T20:14:15;9.63;;;4.43;;
27999;SDS011;15328;50.860;10.562;2023-02-17T20:19:15;4.45;;;3.03;;
27999;SDS011;15328;50.860;10.562;2023-02-17T20:24:16;4.43;;;3.10;;
27999;SDS011;15328;50.860;10.562;2023-02-17T20:29:16;5.03;;;3.60;;
27999;SDS011;15328;50.860;10.562;2023-02-17T20:34:36;4.40;;;3.57;;
27999;SDS011;15328;50.860;10.562;2023-02-17T20:39:38;6.10;;;3.53;;
27999;SDS011;15328;50.860;10.562;2023-02-17T20:44:40;4.45;;;3.10;;
27999;SDS011;15328;50.860;10.562;2023-02-17T20:49:40;6.05;;;3.45;;
27999;SDS011;15328;50.860;10.562;2023-02-17T20:54:41;5.63;;;4.20;;
27999;SDS011;15328;50.860;10.562;2023-02-17T20:59:41;6.80;;;4.28;;
27999;SDS011;15328;50.860;10.562;2023-02-17T21:04:42;5.55;;;3.97;;
27999;SDS011;15328;50.860;10.562;2023-02-17T21:09:42;5.50;;;4.03;;
27999;SDS011;15328;50.860;10.562;2023-02-17T21:14:42;5.43;;;4.00;;
27999;SDS011;15328;50.860;10.562;2023-02-17T21:19:43;5.65;;;4.70;;
27999;SDS011;15328;50.860;10.562;2023-02-17T21:24:43;6.07;;;4.70;;
27999;SDS011;15328;50.860;10.562;2023-02-17T21:29:44;21.20;;;14.32;;
27999;SDS011;15328;50.860;10.562;2023-02-17T21:34:44;6.87;;;5.07;;
27999;SDS011;15328;50.860;10.562;2023-02-17T21:39:44;6.18;;;4.75;;
27999;SDS011;15328;50.860;10.562;2023-02-17T21:44:45;7.10;;;4.88;;
27999;SDS011;15328;50.860;10.562;2023-02-17T21:49:52;6.25;;;5.10;;
27999;SDS011;15328;50.860;10.562;2023-02-17T21:54:53;7.78;;;5.90;;
27999;SDS011;15328;50.860;10.562;2023-02-17T21:59:53;7.90;;;5.40;;
27999;SDS011;15328;50.860;10.562;2023-02-17T22:04:54;7.47;;;5.57;;
27999;SDS011;15328;50.860;10.562;2023-02-17T22:09:56;8.27;;;5.85;;
27999;SDS011;15328;50.860;10.562;2023-02-17T22:14:57;8.23;;;5.70;;
27999;SDS011;15328;50.860;10.562;2023-02-17T22:19:57;9.85;;;5.80;;
27999;SDS011;15328;50.860;10.562;2023-02-17T22:24:58;10.35;;;5.78;;
27999;SDS011;15328;50.860;10.562;2023-02-17T22:29:58;8.93;;;5.95;;
27999;SDS011;15328;50.860;10.562;2023-02-17T22:34:59;7.80;;;5.40;;
27999;SDS011;15328;50.860;10.562;2023-02-17T22:39:59;8.25;;;5.72;;
27999;SDS011;15328;50.860;10.562;2023-02-17T22:44:59;9.05;;;6.20;;
27999;SDS011;15328;50.860;10.562;2023-02-17T22:50:00;7.43;;;5.57;;
27999;SDS011;15328;50.860;10.562;2023-02-17T22:55:00;8.15;;;5.13;;
27999;SDS011;15328;50.860;10.562;2023-02-17T23:00:00;9.35;;;6.38;;
27999;SDS011;15328;50.860;10.562;2023-02-17T23:05:01;8.83;;;5.70;;
27999;SDS011;15328;50.860;10.562;2023-02-17T23:10:02;8.27;;;6.97;;
27999;SDS011;15328;50.860;10.562;2023-02-17T23:15:03;9.13;;;7.28;;
27999;SDS011;15328;50.860;10.562;2023-02-17T23:20:03;9.85;;;7.30;;
27999;SDS011;15328;50.860;10.562;2023-02-17T23:25:04;8.93;;;6.90;;
27999;SDS011;15328;50.860;10.562;2023-02-17T23:30:05;9.63;;;7.20;;
27999;SDS011;15328;50.860;10.562;2023-02-17T23:35:08;9.30;;;7.65;;
27999;SDS011;15328;50.860;10.562;2023-02-17T23:40:09;9.55;;;7.68;;
27999;SDS011;15328;50.860;10.562;2023-02-17T23:45:10;12.95;;;7.90;;
27999;SDS011;15328;50.860;10.562;2023-02-17T23:50:11;11.90;;;7.30;;
27999;SDS011;15328;50.860;10.562;2023-02-17T23:55:12;10.40;;;8.00;;
